Terminal Aerodrome Forecast
Issued by NWS

Home | Current Version | Previous Version | Graphics & Text | Print | Product List | Glossary On
Versions: 1 2 3 4 5 6 7 8 9 10 11 12 13 14 15 16 17 18 19 20 21 22 23 24 25 26
000
FTUS43 KTOP 181100
TAFFOE
TAF
KFOE 181121Z 1812/1912 09006KT 6SM BR BKN006
     FM181800 10008KT P6SM BKN013
     FM182000 11009KT P6SM SCT025 BKN150
     FM190800 13006KT 4SM BR BKN005=

USA.gov is the U.S. government's official web portal to all federal, state and local government web resources and services.